Time;durP1;ratioP1;P1;durP2;ratioP2;P2;SDS_P1;SDS_P2;PMS_P1;PMS_P2;Temp;Humidity;BMP_temperature;BMP_pressure;BME280_temperature;BME280_humidity;BME280_pressure;Samples;Min_cycle;Max_cycle;Signal;HPM_P1;HPM_P2
2021/11/24 00:01:52;;;;;;;22.80;15.00;;;7.80;1.00;;;;;;5058245;28;20220;-83
2021/11/24 00:04:19;;;;;;;23.58;17.02;;;7.80;1.00;;;;;;5056853;28;20219;-79
2021/11/24 00:06:46;;;;;;;23.83;15.90;;;7.80;1.00;;;;;;5068930;28;20221;-80
2021/11/24 00:09:13;;;;;;;22.58;15.07;;;7.80;1.00;;;;;;5054633;28;20223;-80
2021/11/24 00:11:40;;;;;;;23.30;14.95;;;7.80;1.00;;;;;;5061399;28;20216;-81
2021/11/24 00:14:09;;;;;;;23.58;15.23;;;7.80;1.00;;;;;;5056662;28;20220;-80
2021/11/24 00:16:36;;;;;;;21.90;15.07;;;7.80;1.00;;;;;;5061751;28;20236;-78
2021/11/24 00:19:03;;;;;;;24.42;15.50;;;7.80;1.00;;;;;;5057442;28;20233;-80
2021/11/24 00:21:30;;;;;;;20.90;15.85;;;7.80;1.00;;;;;;5056979;28;20218;-81
2021/11/24 00:23:57;;;;;;;20.33;14.63;;;7.80;1.00;;;;;;5049879;28;20225;-80
2021/11/24 00:26:24;;;;;;;21.85;14.43;;;7.80;1.00;;;;;;5058075;28;20232;-79
2021/11/24 00:28:51;;;;;;;22.60;15.10;;;7.80;1.00;;;;;;5063931;28;20228;-79
2021/11/24 00:31:19;;;;;;;21.70;14.43;;;7.80;1.00;;;;;;5066107;28;20246;-79
2021/11/24 00:33:46;;;;;;;22.25;15.27;;;7.80;1.00;;;;;;5058194;28;20229;-79
2021/11/24 00:36:13;;;;;;;19.85;14.15;;;7.80;1.00;;;;;;5057767;28;20223;-78
2021/11/24 00:38:40;;;;;;;23.20;14.40;;;7.80;1.00;;;;;;5061048;28;20238;-78
2021/11/24 00:41:07;;;;;;;20.77;12.98;;;7.80;1.00;;;;;;5043274;28;20316;-80
2021/11/24 00:43:34;;;;;;;20.13;13.05;;;7.80;1.00;;;;;;5060692;28;20232;-79
2021/11/24 00:46:01;;;;;;;25.15;13.60;;;7.80;1.00;;;;;;5055632;28;20367;-80
2021/11/24 00:48:29;;;;;;;16.88;12.45;;;7.80;1.00;;;;;;5063327;28;20239;-79
2021/11/24 00:50:56;;;;;;;17.27;12.90;;;7.80;1.00;;;;;;5048713;28;20227;-79
2021/11/24 00:53:23;;;;;;;17.58;12.13;;;7.80;1.00;;;;;;5059788;28;20233;-80
2021/11/24 00:55:50;;;;;;;19.27;12.43;;;7.80;1.00;;;;;;5053929;28;20229;-79
2021/11/24 00:58:19;;;;;;;17.33;11.75;;;7.80;1.00;;;;;;5058511;28;20232;-80
2021/11/24 01:00:46;;;;;;;19.40;11.82;;;7.80;1.00;;;;;;5056544;28;20221;-80
2021/11/24 01:03:15;;;;;;;18.38;13.45;;;7.90;1.00;;;;;;5055026;28;20287;-80
2021/11/24 01:05:46;;;;;;;20.55;13.18;;;7.80;1.00;;;;;;5047537;28;20218;-78
2021/11/24 01:08:13;;;;;;;23.02;14.02;;;7.90;1.00;;;;;;5057763;28;20276;-79
2021/11/24 01:10:41;;;;;;;18.48;13.90;;;7.90;1.00;;;;;;5058782;28;20225;-80
2021/11/24 01:13:08;;;;;;;23.30;14.80;;;7.80;1.00;;;;;;5057272;28;20674;-80
2021/11/24 01:15:36;;;;;;;21.48;12.75;;;7.80;1.00;;;;;;5056486;28;20269;-80
2021/11/24 01:18:03;;;;;;;19.25;13.48;;;7.80;1.00;;;;;;5059248;28;20241;-79
2021/11/24 01:20:31;;;;;;;19.00;12.85;;;7.80;1.00;;;;;;5053570;28;20221;-79
2021/11/24 01:22:59;;;;;;;18.88;12.70;;;7.80;1.00;;;;;;5057886;28;20230;-79
2021/11/24 01:25:26;;;;;;;18.83;13.40;;;7.80;1.00;;;;;;5058475;28;20236;-79
2021/11/24 01:27:53;;;;;;;17.13;12.90;;;7.80;1.00;;;;;;5057639;28;20322;-79
2021/11/24 01:30:20;;;;;;;18.52;11.95;;;7.80;1.00;;;;;;5054704;28;20225;-79
2021/11/24 01:32:47;;;;;;;17.75;11.75;;;7.80;1.00;;;;;;5062549;28;20289;-78
2021/11/24 01:35:14;;;;;;;19.48;14.02;;;7.80;1.00;;;;;;5064014;28;20226;-79
2021/11/24 01:37:41;;;;;;;18.27;13.43;;;7.80;1.00;;;;;;5066565;28;21235;-78
2021/11/24 01:40:13;;;;;;;17.58;12.20;;;7.90;1.00;;;;;;5051322;28;20295;-79
2021/11/24 01:42:41;;;;;;;22.80;13.02;;;7.80;1.00;;;;;;5057238;28;20304;-79
2021/11/24 01:45:11;;;;;;;16.77;12.27;;;7.80;1.00;;;;;;5054337;28;20723;-78
2021/11/24 01:47:38;;;;;;;19.55;12.15;;;7.80;1.00;;;;;;5062750;28;20315;-79
2021/11/24 01:50:07;;;;;;;19.42;12.60;;;7.80;1.00;;;;;;5037946;28;20238;-78
2021/11/24 01:52:34;;;;;;;17.33;12.40;;;7.80;1.00;;;;;;5057587;28;20225;-79
2021/11/24 01:55:01;;;;;;;18.02;11.88;;;7.80;1.00;;;;;;5057469;28;20221;-81
2021/11/24 01:57:29;;;;;;;17.92;12.15;;;7.70;1.00;;;;;;5044423;28;20224;-77
2021/11/24 01:59:57;;;;;;;17.88;12.43;;;7.80;1.00;;;;;;5056484;28;20239;-79
2021/11/24 02:02:24;;;;;;;21.73;12.48;;;7.80;1.00;;;;;;5057273;28;20256;-79
2021/11/24 02:04:51;;;;;;;17.50;11.85;;;7.80;1.00;;;;;;5056283;28;20231;-79
2021/11/24 02:07:18;;;;;;;19.60;11.93;;;7.70;1.00;;;;;;5055677;28;20226;-78
2021/11/24 02:09:45;;;;;;;19.23;12.77;;;7.70;1.00;;;;;;5041852;28;20226;-79
2021/11/24 02:12:15;;;;;;;14.93;11.63;;;7.70;1.00;;;;;;5064613;28;20236;-78
2021/11/24 02:14:45;;;;;;;19.63;13.05;;;7.70;1.00;;;;;;5070983;28;20197;-79
2021/11/24 02:17:14;;;;;;;17.02;11.68;;;7.80;1.00;;;;;;5066804;28;20225;-80
2021/11/24 02:19:41;;;;;;;20.30;12.48;;;7.80;1.00;;;;;;5062402;28;20383;-79
2021/11/24 02:22:11;;;;;;;15.88;11.50;;;7.80;1.00;;;;;;5064778;28;20220;-79
2021/11/24 02:24:40;;;;;;;17.70;12.88;;;7.80;1.00;;;;;;5062984;28;20217;-81
2021/11/24 02:27:08;;;;;;;16.75;11.07;;;7.80;1.00;;;;;;5063039;28;20224;-80
2021/11/24 02:29:36;;;;;;;14.18;10.45;;;7.80;1.00;;;;;;5056626;28;20837;-78
2021/11/24 02:32:05;;;;;;;15.45;11.77;;;7.80;1.00;;;;;;5059016;28;20226;-79
2021/11/24 02:34:33;;;;;;;14.73;10.60;;;7.80;1.00;;;;;;5060546;28;20228;-78
2021/11/24 02:37:00;;;;;;;15.60;11.05;;;7.80;1.00;;;;;;5057987;28;20252;-79
2021/11/24 02:39:29;;;;;;;16.83;10.23;;;7.80;1.00;;;;;;5058058;28;20252;-79
2021/11/24 02:41:56;;;;;;;16.20;12.10;;;7.80;1.00;;;;;;5058253;28;20231;-80
2021/11/24 02:44:28;;;;;;;17.80;11.23;;;7.80;1.00;;;;;;5065410;28;20228;-79
2021/11/24 02:46:57;;;;;;;16.15;10.82;;;7.70;1.00;;;;;;5063863;28;20221;-79
2021/11/24 02:49:24;;;;;;;16.17;11.68;;;7.80;1.00;;;;;;5043911;28;21460;-80
2021/11/24 02:51:51;;;;;;;13.60;10.15;;;7.80;1.00;;;;;;5056194;28;20217;-80
2021/11/24 02:54:18;;;;;;;14.82;10.98;;;7.90;1.00;;;;;;5051037;28;20968;-78
2021/11/24 02:56:46;;;;;;;16.85;10.80;;;7.80;1.00;;;;;;5056777;28;20870;-77
2021/11/24 02:59:13;;;;;;;14.68;10.32;;;7.80;1.00;;;;;;5059230;28;20240;-79
2021/11/24 03:01:40;;;;;;;17.40;11.98;;;7.80;1.00;;;;;;5052588;28;20994;-77
2021/11/24 03:04:08;;;;;;;15.75;9.68;;;7.80;1.00;;;;;;5053341;28;21162;-79
2021/11/24 03:06:35;;;;;;;14.68;10.13;;;7.80;1.00;;;;;;5052954;28;20762;-79
2021/11/24 03:09:02;;;;;;;13.45;9.77;;;7.80;1.00;;;;;;5059615;28;20231;-78
2021/11/24 03:11:29;;;;;;;13.80;10.60;;;7.80;1.00;;;;;;5059864;28;20258;-78
2021/11/24 03:13:58;;;;;;;16.70;10.98;;;7.80;1.00;;;;;;5061207;28;20230;-78
2021/11/24 03:16:25;;;;;;;16.48;9.85;;;7.80;1.00;;;;;;5060987;28;20229;-78
2021/11/24 03:18:52;;;;;;;18.33;10.48;;;7.80;1.00;;;;;;5058593;28;20224;-80
2021/11/24 03:21:20;;;;;;;15.25;11.07;;;7.70;1.00;;;;;;5074161;28;21277;-78
2021/11/24 03:23:47;;;;;;;13.20;9.13;;;7.70;1.00;;;;;;5066569;28;20224;-78
2021/11/24 03:26:15;;;;;;;15.52;10.63;;;7.60;1.00;;;;;;5066937;28;20224;-77
2021/11/24 03:28:42;;;;;;;14.93;10.00;;;7.60;1.00;;;;;;5066848;28;21155;-77
2021/11/24 03:31:10;;;;;;;14.95;9.55;;;7.70;1.00;;;;;;5059591;28;20650;-77
2021/11/24 03:33:37;;;;;;;14.90;10.27;;;7.70;1.00;;;;;;5044264;28;21242;-78
2021/11/24 03:36:05;;;;;;;16.17;10.35;;;7.60;1.00;;;;;;5061396;28;21026;-77
2021/11/24 03:38:32;;;;;;;15.55;9.82;;;7.70;1.00;;;;;;5061066;28;20217;-78
2021/11/24 03:40:59;;;;;;;14.60;10.40;;;7.70;1.00;;;;;;5059362;28;20298;-77
2021/11/24 03:43:26;;;;;;;16.10;10.48;;;7.70;1.00;;;;;;5063239;28;20287;-77
2021/11/24 03:45:53;;;;;;;15.23;8.73;;;7.70;1.00;;;;;;5060045;28;20226;-79
2021/11/24 03:48:22;;;;;;;14.75;8.80;;;7.80;1.00;;;;;;5060946;28;21432;-79
2021/11/24 03:50:50;;;;;;;16.17;9.43;;;7.80;1.00;;;;;;5059415;28;20712;-78
2021/11/24 03:53:17;;;;;;;11.77;8.35;;;7.70;1.00;;;;;;5063065;28;20692;-79
2021/11/24 03:55:44;;;;;;;14.85;10.95;;;7.70;1.00;;;;;;5057138;28;20232;-77
2021/11/24 03:58:11;;;;;;;12.30;9.07;;;7.70;1.00;;;;;;5052646;28;20233;-79
2021/11/24 04:00:38;;;;;;;15.93;12.35;;;7.80;1.00;;;;;;5062589;28;20228;-78
2021/11/24 04:03:06;;;;;;;14.65;10.05;;;7.70;1.00;;;;;;5057899;28;20727;-79
2021/11/24 04:05:35;;;;;;;13.32;9.65;;;7.60;1.00;;;;;;5065019;28;20719;-78
2021/11/24 04:08:02;;;;;;;16.02;9.98;;;7.70;1.00;;;;;;5061335;28;20295;-80
2021/11/24 04:10:29;;;;;;;13.52;9.40;;;7.70;1.00;;;;;;5066047;28;20221;-79
2021/11/24 04:12:56;;;;;;;19.05;10.05;;;7.70;1.00;;;;;;5059131;28;21117;-78
2021/11/24 04:15:24;;;;;;;12.98;9.13;;;7.70;1.00;;;;;;5052908;28;20230;-80
2021/11/24 04:17:50;;;;;;;21.83;11.35;;;7.70;1.00;;;;;;5062969;28;20256;-79
2021/11/24 04:20:19;;;;;;;13.60;9.77;;;7.70;1.00;;;;;;5055633;28;21327;-80
2021/11/24 04:22:48;;;;;;;14.13;10.02;;;7.70;1.00;;;;;;5054805;28;20226;-76
2021/11/24 04:25:17;;;;;;;15.23;9.73;;;7.80;1.00;;;;;;5063921;28;21021;-77
2021/11/24 04:27:45;;;;;;;11.95;8.55;;;7.70;1.00;;;;;;5060906;28;20533;-79
2021/11/24 04:30:13;;;;;;;13.43;9.35;;;7.70;1.00;;;;;;5065409;28;20218;-78
2021/11/24 04:32:40;;;;;;;12.80;9.75;;;7.70;1.00;;;;;;5074543;28;20236;-80
2021/11/24 04:35:08;;;;;;;14.07;9.38;;;7.70;1.00;;;;;;5056422;28;20229;-79
2021/11/24 04:37:36;;;;;;;12.90;9.25;;;7.70;1.00;;;;;;5061068;28;20224;-76
2021/11/24 04:40:06;;;;;;;11.98;9.00;;;7.70;1.00;;;;;;5061861;28;20237;-76
2021/11/24 04:42:34;;;;;;;14.65;10.38;;;7.70;1.00;;;;;;5063056;28;20928;-79
2021/11/24 04:45:01;;;;;;;13.60;10.57;;;7.70;1.00;;;;;;5062871;28;20274;-79
2021/11/24 04:47:27;;;;;;;14.32;9.55;;;7.70;1.00;;;;;;5060322;28;20228;-78
2021/11/24 04:49:54;;;;;;;11.40;8.55;;;7.80;1.00;;;;;;5060215;28;20723;-77
2021/11/24 04:52:21;;;;;;;11.23;8.45;;;7.80;1.00;;;;;;5064687;28;20324;-80
2021/11/24 04:54:48;;;;;;;15.05;9.60;;;7.80;1.00;;;;;;5066140;28;21232;-80
2021/11/24 04:57:17;;;;;;;14.38;10.18;;;7.80;1.00;;;;;;5061996;28;20317;-77
2021/11/24 04:59:45;;;;;;;13.82;9.18;;;7.80;1.00;;;;;;5060363;28;20230;-77
2021/11/24 05:02:12;;;;;;;12.00;8.57;;;7.80;1.00;;;;;;5055664;28;20233;-80
2021/11/24 05:04:39;;;;;;;15.80;9.95;;;7.80;1.00;;;;;;5058718;28;20233;-79
2021/11/24 05:07:06;;;;;;;13.02;8.93;;;7.80;1.00;;;;;;5069954;28;20225;-78
2021/11/24 05:09:34;;;;;;;14.32;10.57;;;7.80;1.00;;;;;;5063591;28;20237;-79
2021/11/24 05:12:03;;;;;;;12.40;9.05;;;7.90;1.00;;;;;;5063559;28;21431;-77
2021/11/24 05:14:34;;;;;;;13.93;9.32;;;7.90;1.00;;;;;;5060491;28;20221;-77
2021/11/24 05:17:03;;;;;;;13.70;10.80;;;7.90;1.00;;;;;;5075164;28;20256;-78
2021/11/24 05:19:32;;;;;;;11.52;8.88;;;7.90;1.00;;;;;;5063318;28;23740;-79
2021/11/24 05:21:59;;;;;;;12.52;9.07;;;7.90;1.00;;;;;;5068434;28;20243;-78
2021/11/24 05:24:26;;;;;;;13.10;9.13;;;7.90;1.00;;;;;;5066192;28;20292;-79
2021/11/24 05:26:53;;;;;;;12.80;9.77;;;7.90;1.00;;;;;;5058142;28;20228;-79
2021/11/24 05:29:20;;;;;;;12.25;9.02;;;7.90;1.00;;;;;;5070039;28;22462;-80
2021/11/24 05:31:48;;;;;;;13.48;9.50;;;7.80;1.00;;;;;;5058360;28;20234;-80
2021/11/24 05:34:16;;;;;;;13.10;9.32;;;7.80;1.00;;;;;;5063506;28;20336;-80
2021/11/24 05:36:43;;;;;;;14.63;8.80;;;7.80;1.00;;;;;;5056403;28;20316;-80
2021/11/24 05:39:11;;;;;;;11.40;8.68;;;7.80;1.00;;;;;;5062067;28;20225;-80
2021/11/24 05:41:40;;;;;;;14.35;9.63;;;7.80;1.00;;;;;;5065484;28;20286;-79
2021/11/24 05:44:19;;;;;;;12.27;8.43;;;7.80;1.00;;;;;;5068043;28;20221;-80
2021/11/24 05:46:55;;;;;;;13.52;8.57;;;7.80;1.00;;;;;;5064026;28;20227;-79
2021/11/24 05:49:24;;;;;;;14.32;9.35;;;7.80;1.00;;;;;;5060017;28;20221;-79
2021/11/24 05:51:52;;;;;;;14.32;9.23;;;7.80;1.00;;;;;;5069124;28;20225;-81
2021/11/24 05:54:19;;;;;;;12.75;7.60;;;7.80;1.00;;;;;;5061592;28;20236;-77
2021/11/24 05:56:46;;;;;;;13.25;9.02;;;7.80;1.00;;;;;;5074011;28;20312;-78
2021/11/24 05:59:16;;;;;;;11.07;8.00;;;7.80;1.00;;;;;;5069254;28;20616;-78
2021/11/24 06:01:43;;;;;;;12.70;8.60;;;7.80;1.00;;;;;;5072388;28;20229;-78
2021/11/24 06:04:12;;;;;;;14.63;10.10;;;7.80;1.00;;;;;;5069504;28;20226;-79
2021/11/24 06:06:39;;;;;;;12.80;9.02;;;7.80;1.00;;;;;;5056427;28;23757;-79
2021/11/24 06:09:06;;;;;;;12.25;9.55;;;7.80;1.00;;;;;;5073908;28;20219;-79
2021/11/24 06:11:34;;;;;;;14.70;10.07;;;7.80;1.00;;;;;;5072947;28;20221;-81
2021/11/24 06:14:01;;;;;;;12.82;8.63;;;7.80;1.00;;;;;;5069823;28;20233;-78
2021/11/24 06:16:29;;;;;;;13.45;9.25;;;7.80;1.00;;;;;;5067286;28;20222;-78
2021/11/24 06:18:56;;;;;;;11.48;8.00;;;7.80;1.00;;;;;;5068494;28;20230;-81
2021/11/24 06:21:24;;;;;;;10.73;8.77;;;7.80;1.00;;;;;;5060850;28;20284;-81
2021/11/24 06:23:52;;;;;;;14.32;9.68;;;7.70;1.00;;;;;;5067375;28;21095;-80
2021/11/24 06:26:21;;;;;;;12.20;8.60;;;7.70;1.00;;;;;;5061336;28;20268;-80
2021/11/24 06:28:49;;;;;;;12.07;9.32;;;7.80;1.00;;;;;;5071176;28;20220;-77
2021/11/24 06:31:17;;;;;;;12.90;8.77;;;7.70;1.00;;;;;;5058081;28;20224;-76
2021/11/24 06:33:44;;;;;;;11.30;8.15;;;7.80;1.00;;;;;;5059522;28;20232;-77
2021/11/24 06:36:11;;;;;;;16.92;9.88;;;7.80;1.00;;;;;;5063986;28;20250;-79
2021/11/24 06:38:40;;;;;;;13.55;8.60;;;8.00;1.00;;;;;;5063605;28;20218;-78
2021/11/24 06:41:07;;;;;;;12.57;9.18;;;8.00;1.00;;;;;;5069774;28;20246;-79
2021/11/24 06:43:34;;;;;;;11.25;8.98;;;8.10;1.00;;;;;;5056209;28;20299;-77
2021/11/24 06:46:01;;;;;;;13.93;10.25;;;8.00;1.00;;;;;;5068437;28;20885;-78
2021/11/24 06:48:28;;;;;;;29.48;19.60;;;8.00;1.00;;;;;;5066955;28;20225;-79
2021/11/24 06:50:55;;;;;;;15.18;11.13;;;8.00;1.00;;;;;;5071766;28;20261;-79
2021/11/24 06:53:22;;;;;;;16.50;11.88;;;8.00;1.00;;;;;;5072322;28;20254;-78
2021/11/24 06:55:50;;;;;;;15.50;10.18;;;8.00;1.00;;;;;;5069232;28;20254;-81
2021/11/24 06:58:17;;;;;;;14.57;9.98;;;8.00;1.00;;;;;;5052519;28;20216;-79
2021/11/24 07:00:45;;;;;;;12.43;9.57;;;8.00;1.00;;;;;;5069688;28;20228;-78
2021/11/24 07:03:12;;;;;;;15.65;10.30;;;8.00;1.00;;;;;;5062391;28;20241;-78
2021/11/24 07:05:39;;;;;;;13.70;10.70;;;7.90;1.00;;;;;;5060202;28;20228;-79
2021/11/24 07:08:08;;;;;;;14.38;10.55;;;8.00;1.00;;;;;;5059248;28;20225;-77
2021/11/24 07:10:35;;;;;;;16.20;11.38;;;8.00;1.00;;;;;;5061367;28;20434;-76
2021/11/24 07:13:04;;;;;;;15.18;10.77;;;8.00;1.00;;;;;;5073644;28;20951;-80
2021/11/24 07:15:32;;;;;;;16.92;11.20;;;8.00;1.00;;;;;;5067803;28;20228;-76
2021/11/24 07:18:00;;;;;;;15.15;10.70;;;8.00;1.00;;;;;;5062133;28;20230;-78
2021/11/24 07:20:27;;;;;;;17.02;12.25;;;8.10;1.00;;;;;;5060864;28;20320;-78
2021/11/24 07:22:55;;;;;;;13.63;10.40;;;8.10;1.00;;;;;;5059582;28;20224;-76
2021/11/24 07:25:23;;;;;;;16.42;11.52;;;8.10;1.00;;;;;;5060032;28;20429;-79
2021/11/24 07:27:50;;;;;;;15.15;11.57;;;8.20;1.00;;;;;;5058140;28;20291;-76
2021/11/24 07:30:19;;;;;;;16.98;13.23;;;8.20;1.00;;;;;;5059103;28;20235;-79
2021/11/24 07:32:47;;;;;;;13.90;10.88;;;8.30;1.00;;;;;;5056181;28;20315;-78
2021/11/24 07:35:14;;;;;;;12.95;10.52;;;8.30;1.00;;;;;;5054810;28;20235;-79
2021/11/24 07:37:41;;;;;;;14.53;11.87;;;8.30;1.00;;;;;;5051636;28;20404;-80
2021/11/24 07:40:10;;;;;;;15.70;12.03;;;8.30;1.00;;;;;;5061338;28;20448;-77
2021/11/24 07:42:37;;;;;;;14.57;11.48;;;8.30;1.00;;;;;;5059346;28;20540;-75
2021/11/24 07:45:06;;;;;;;14.60;11.50;;;8.30;1.00;;;;;;5062177;28;20227;-78
2021/11/24 07:47:35;;;;;;;15.10;12.00;;;8.20;1.00;;;;;;5069179;28;21064;-77
2021/11/24 07:50:02;;;;;;;14.88;11.82;;;8.30;1.00;;;;;;5067432;28;21073;-78
2021/11/24 07:52:29;;;;;;;16.30;12.05;;;8.20;1.00;;;;;;5055764;28;20228;-75
2021/11/24 07:54:56;;;;;;;15.75;11.43;;;8.10;1.00;;;;;;5056526;28;20658;-79
2021/11/24 07:57:23;;;;;;;17.88;12.60;;;8.10;1.00;;;;;;5051419;28;20226;-77
2021/11/24 07:59:52;;;;;;;14.75;11.18;;;8.10;1.00;;;;;;5055036;28;21831;-81
2021/11/24 08:02:19;;;;;;;16.63;13.02;;;8.00;1.00;;;;;;5058562;28;20236;-77
2021/11/24 08:04:48;;;;;;;20.55;13.48;;;8.00;1.00;;;;;;5056468;28;20239;-77
2021/11/24 08:07:16;;;;;;;17.48;13.68;;;8.00;1.00;;;;;;5053318;28;20221;-77
2021/11/24 08:09:44;;;;;;;18.90;13.85;;;8.00;1.00;;;;;;5068289;28;20237;-77
2021/11/24 08:12:11;;;;;;;19.23;13.15;;;8.00;1.00;;;;;;5062688;28;20327;-79
2021/11/24 08:14:42;;;;;;;17.50;12.98;;;8.00;1.00;;;;;;5056996;28;20229;-77
2021/11/24 08:17:09;;;;;;;15.50;12.70;;;7.90;1.00;;;;;;5062780;28;20213;-78
2021/11/24 08:19:37;;;;;;;18.85;12.25;;;8.00;1.00;;;;;;5056632;28;20213;-79
2021/11/24 08:22:06;;;;;;;17.00;12.15;;;7.90;1.00;;;;;;5057769;28;20245;-78
2021/11/24 08:24:33;;;;;;;16.67;12.38;;;8.00;1.00;;;;;;5061858;28;20312;-76
2021/11/24 08:27:00;;;;;;;19.23;14.50;;;8.10;1.00;;;;;;5050643;28;20236;-78
2021/11/24 08:29:27;;;;;;;17.30;13.23;;;8.20;1.00;;;;;;5061974;28;20330;-78
2021/11/24 08:31:54;;;;;;;17.10;13.05;;;8.30;1.00;;;;;;5055564;28;21132;-79
2021/11/24 08:34:21;;;;;;;19.25;13.95;;;8.20;1.00;;;;;;5057486;28;20300;-76
2021/11/24 08:36:50;;;;;;;20.38;13.80;;;8.20;1.00;;;;;;5037823;28;20227;-78
2021/11/24 08:39:19;;;;;;;15.10;11.15;;;8.10;1.00;;;;;;5060880;28;20323;-79
2021/11/24 08:41:46;;;;;;;16.70;11.38;;;8.10;1.00;;;;;;5063977;28;20233;-77
2021/11/24 08:44:17;;;;;;;13.80;10.40;;;8.10;1.00;;;;;;5066544;28;20230;-77
2021/11/24 08:46:45;;;;;;;16.48;11.80;;;8.00;1.00;;;;;;5062794;28;21928;-76
2021/11/24 08:49:13;;;;;;;15.05;11.40;;;8.10;1.00;;;;;;5055655;28;20284;-77
2021/11/24 08:51:42;;;;;;;14.63;10.82;;;8.10;1.00;;;;;;5066529;28;20235;-78
2021/11/24 08:54:11;;;;;;;17.15;11.30;;;8.10;1.00;;;;;;5058580;28;20225;-77
2021/11/24 08:56:42;;;;;;;14.35;10.35;;;8.20;1.00;;;;;;5058283;28;20216;-78
2021/11/24 08:59:09;;;;;;;16.60;11.57;;;8.30;1.00;;;;;;5055449;28;20290;-78
2021/11/24 09:01:39;;;;;;;19.27;12.65;;;8.40;1.00;;;;;;5053160;28;20222;-76
2021/11/24 09:04:09;;;;;;;15.60;12.03;;;8.50;1.00;;;;;;5050741;28;20221;-77
2021/11/24 09:06:36;;;;;;;17.67;12.23;;;8.60;1.00;;;;;;5053116;28;20421;-78
2021/11/24 09:09:07;;;;;;;15.85;11.10;;;8.70;1.00;;;;;;5059883;28;20578;-77
2021/11/24 09:11:35;;;;;;;15.40;11.30;;;8.70;1.00;;;;;;5052383;28;21061;-77
2021/11/24 09:14:03;;;;;;;16.95;14.38;;;8.70;1.00;;;;;;5055036;28;20223;-77
2021/11/24 09:16:31;;;;;;;14.60;11.32;;;8.80;1.00;;;;;;5055160;28;20745;-78
2021/11/24 09:18:58;;;;;;;15.23;10.02;;;8.70;1.00;;;;;;5056326;28;20217;-77
2021/11/24 09:21:25;;;;;;;16.95;11.52;;;8.70;1.00;;;;;;5049669;28;20228;-78
2021/11/24 09:23:52;;;;;;;14.57;10.35;;;8.70;1.00;;;;;;5055473;28;20240;-76
2021/11/24 09:26:20;;;;;;;14.77;9.70;;;8.60;1.00;;;;;;5057283;28;20293;-76
2021/11/24 09:28:48;;;;;;;13.68;10.02;;;8.50;1.00;;;;;;5049824;28;20482;-77
2021/11/24 09:31:17;;;;;;;15.57;10.40;;;8.40;1.00;;;;;;5056845;28;20267;-76
2021/11/24 09:33:44;;;;;;;19.83;13.20;;;8.40;1.00;;;;;;5056060;28;20457;-77
2021/11/24 09:36:12;;;;;;;14.95;11.15;;;8.30;1.00;;;;;;5045349;28;20452;-78
2021/11/24 09:38:40;;;;;;;15.10;10.75;;;8.40;1.00;;;;;;5050989;28;20229;-77
2021/11/24 09:41:11;;;;;;;18.67;12.63;;;8.40;1.00;;;;;;5059397;28;22147;-78
2021/11/24 09:43:40;;;;;;;15.85;11.70;;;8.50;1.00;;;;;;5049914;28;20509;-77
2021/11/24 09:46:08;;;;;;;17.88;11.63;;;8.50;1.00;;;;;;5058733;28;20253;-78
2021/11/24 09:48:37;;;;;;;15.65;11.77;;;8.50;1.00;;;;;;5054374;28;20221;-77
2021/11/24 09:51:05;;;;;;;17.10;12.95;;;8.60;1.00;;;;;;5064234;28;20232;-77
2021/11/24 09:55:21;;;;;;;18.30;14.40;;;8.60;1.00;;;;;;5170759;27;20469;-78
2021/11/24 09:57:52;;;;;;;14.95;11.82;;;8.80;1.00;;;;;;5159550;27;21477;-78
2021/11/24 10:00:22;;;;;;;15.97;11.70;;;8.70;1.00;;;;;;5163831;27;20209;-79
2021/11/24 10:02:49;;;;;;;14.60;11.20;;;8.70;1.00;;;;;;5158203;27;20531;-79
2021/11/24 10:05:18;;;;;;;16.90;11.63;;;8.60;1.00;;;;;;5148297;27;20917;-79
2021/11/24 10:07:45;;;;;;;14.38;10.82;;;8.50;1.00;;;;;;5140982;27;20223;-80
2021/11/24 10:10:12;;;;;;;17.70;12.57;;;8.60;1.00;;;;;;5142778;27;20287;-80
2021/11/24 10:12:41;;;;;;;15.38;10.73;;;8.70;1.00;;;;;;5156984;27;20217;-78
2021/11/24 10:15:11;;;;;;;15.13;11.98;;;8.70;1.00;;;;;;5147811;27;20238;-79
2021/11/24 10:17:38;;;;;;;13.30;9.80;;;8.70;1.00;;;;;;5148209;27;20307;-80
2021/11/24 10:20:08;;;;;;;12.82;9.48;;;8.60;1.00;;;;;;5152275;27;20443;-79
2021/11/24 10:22:35;;;;;;;16.45;10.88;;;8.70;1.00;;;;;;5148802;27;20218;-81
2021/11/24 10:25:06;;;;;;;11.82;9.45;;;8.70;1.00;;;;;;5158417;27;20230;-80
2021/11/24 10:27:42;;;;;;;17.45;10.25;;;8.60;1.00;;;;;;5161707;27;20300;-79
2021/11/24 10:30:10;;;;;;;11.55;9.05;;;8.70;1.00;;;;;;5157245;27;20329;-79
2021/11/24 10:32:37;;;;;;;13.10;10.52;;;8.70;1.00;;;;;;5162463;27;20220;-78
2021/11/24 10:35:06;;;;;;;11.23;9.27;;;8.70;1.00;;;;;;5158922;27;20234;-80
2021/11/24 10:37:33;;;;;;;14.65;10.80;;;8.70;1.00;;;;;;5167597;27;20218;-80
2021/11/24 10:40:02;;;;;;;14.45;10.48;;;8.80;1.00;;;;;;5141879;27;20220;-78
2021/11/24 10:42:32;;;;;;;16.03;10.60;;;8.80;1.00;;;;;;5156727;27;20225;-79
2021/11/24 10:45:07;;;;;;;12.38;9.77;;;8.70;1.00;;;;;;5160169;27;20426;-80
2021/11/24 10:47:48;;;;;;;14.88;10.80;;;8.60;1.00;;;;;;5155879;27;20315;-80
2021/11/24 10:50:20;;;;;;;18.05;11.00;;;8.50;1.00;;;;;;5155471;27;20228;-78
2021/11/24 10:52:48;;;;;;;15.95;9.93;;;8.50;1.00;;;;;;5162818;27;21046;-79
2021/11/24 10:55:18;;;;;;;18.17;11.15;;;8.60;1.00;;;;;;5152317;27;20475;-79
2021/11/24 10:58:04;;;;;;;12.37;9.20;;;8.70;1.00;;;;;;5156897;27;20342;-78
2021/11/24 11:00:37;;;;;;;14.43;10.40;;;8.80;1.00;;;;;;5154633;27;20526;-79
2021/11/24 11:03:05;;;;;;;15.35;11.48;;;8.90;1.00;;;;;;5161869;27;20226;-79
2021/11/24 11:05:32;;;;;;;14.65;10.18;;;9.10;1.00;;;;;;5128654;27;20225;-80
2021/11/24 11:08:03;;;;;;;15.82;10.55;;;9.10;1.00;;;;;;5148184;27;20227;-79
2021/11/24 11:10:32;;;;;;;13.83;9.40;;;9.20;1.00;;;;;;5143452;27;20795;-79
2021/11/24 11:13:01;;;;;;;15.20;11.10;;;9.20;1.00;;;;;;5142486;27;20677;-79
2021/11/24 11:15:31;;;;;;;13.68;9.07;;;9.20;1.00;;;;;;5142846;27;20249;-78
2021/11/24 11:18:06;;;;;;;13.00;9.20;;;9.10;1.00;;;;;;5146986;27;20226;-78
2021/11/24 11:20:36;;;;;;;12.05;9.20;;;9.10;1.00;;;;;;5133655;27;20220;-77
2021/11/24 11:23:11;;;;;;;10.73;9.00;;;9.10;1.00;;;;;;5151048;27;20225;-78
2021/11/24 11:25:40;;;;;;;9.73;7.72;;;9.20;1.00;;;;;;5154258;27;20465;-79
2021/11/24 11:28:08;;;;;;;9.35;7.95;;;9.20;1.00;;;;;;5150417;27;20216;-77
2021/11/24 11:30:36;;;;;;;10.10;7.43;;;9.10;1.00;;;;;;5149704;27;20236;-78
2021/11/24 11:33:05;;;;;;;12.70;8.60;;;9.10;1.00;;;;;;5148511;27;20239;-79
2021/11/24 11:35:32;;;;;;;11.70;8.60;;;9.10;1.00;;;;;;5144892;27;20990;-78
2021/11/24 11:38:00;;;;;;;12.20;9.02;;;9.10;1.00;;;;;;5145040;27;20293;-80
2021/11/24 11:40:28;;;;;;;13.87;9.03;;;9.20;1.00;;;;;;5138385;27;20210;-79
2021/11/24 11:43:01;;;;;;;13.83;9.97;;;9.10;1.00;;;;;;5126887;27;20402;-78
2021/11/24 11:45:31;;;;;;;11.57;9.00;;;9.10;1.00;;;;;;5134244;27;20465;-78
2021/11/24 11:48:01;;;;;;;10.95;8.70;;;9.00;1.00;;;;;;5134570;27;20230;-78
2021/11/24 11:50:54;;;;;;;10.68;8.73;;;9.10;1.00;;;;;;5130356;27;20220;-79
2021/11/24 11:53:25;;;;;;;9.40;7.30;;;9.10;1.00;;;;;;5143733;27;20225;-79
2021/11/24 11:56:16;;;;;;;9.73;7.40;;;9.00;1.00;;;;;;5140860;27;21047;-78
2021/11/24 11:58:51;;;;;;;11.13;7.80;;;8.90;1.00;;;;;;5154222;27;20216;-78
2021/11/24 12:01:22;;;;;;;9.65;7.30;;;8.90;1.00;;;;;;5141767;27;21124;-78
2021/11/24 12:04:07;;;;;;;9.10;6.93;;;8.90;1.00;;;;;;5127972;27;21983;-78
2021/11/24 12:06:39;;;;;;;9.48;6.55;;;8.90;1.00;;;;;;5144859;27;20222;-79
2021/11/24 12:09:18;;;;;;;8.17;6.53;;;8.90;1.00;;;;;;5132735;27;20297;-78
2021/11/24 12:12:09;;;;;;;9.05;6.10;;;8.90;1.00;;;;;;5132912;27;20439;-78
2021/11/24 12:15:03;;;;;;;12.00;8.13;;;9.00;1.00;;;;;;5138483;27;20896;-76
2021/11/24 12:17:46;;;;;;;8.52;6.78;;;9.00;1.00;;;;;;5132506;27;20465;-78
2021/11/24 12:20:52;;;;;;;7.55;5.97;;;9.00;1.00;;;;;;5133507;27;20223;-76
2021/11/24 12:23:26;;;;;;;6.90;5.47;;;8.90;1.00;;;;;;5120260;27;20243;-78
2021/11/24 12:25:58;;;;;;;9.37;5.73;;;8.90;1.00;;;;;;5137704;27;20476;-76
2021/11/24 12:28:32;;;;;;;8.40;5.18;;;8.80;1.00;;;;;;5135475;27;20459;-78
2021/11/24 12:31:06;;;;;;;7.00;5.28;;;8.70;1.00;;;;;;5132047;27;20651;-77
2021/11/24 12:33:43;;;;;;;6.40;4.93;;;8.60;1.00;;;;;;5141303;27;20231;-78
2021/11/24 12:36:15;;;;;;;7.40;5.00;;;8.70;1.00;;;;;;5138978;27;22174;-77
2021/11/24 12:38:46;;;;;;;9.95;6.80;;;8.70;1.00;;;;;;5138135;27;20215;-77
2021/11/24 12:41:16;;;;;;;7.15;5.55;;;8.80;1.00;;;;;;5138774;27;20229;-77
2021/11/24 12:43:49;;;;;;;10.27;7.53;;;8.90;1.00;;;;;;5141351;27;20297;-78
2021/11/24 12:46:18;;;;;;;9.35;6.35;;;9.00;1.00;;;;;;5138303;27;20478;-79
2021/11/24 12:48:48;;;;;;;10.15;5.10;;;9.00;1.00;;;;;;5135938;27;20225;-80
2021/11/24 12:51:24;;;;;;;7.13;4.70;;;9.10;1.00;;;;;;5132252;27;20307;-77
2021/11/24 12:53:59;;;;;;;8.63;5.40;;;9.10;1.00;;;;;;5139639;27;20537;-78
2021/11/24 12:56:31;;;;;;;6.20;4.87;;;9.20;1.00;;;;;;5135011;27;20510;-78
2021/11/24 12:59:07;;;;;;;5.93;4.40;;;9.20;1.00;;;;;;5138099;27;20474;-78
2021/11/24 13:01:36;;;;;;;7.38;6.20;;;9.20;1.00;;;;;;5136531;27;20214;-78